Brewster Knott — WDG6998 — position and weather

sailwx.info

Track history (hours):
 
Tides and Currents Weather Stations Pressure Air Temp Water Temp Dewpoint Dewpoint Depression Visibility Wind Speed Wind Dir Waves Ship Positions

Brewster Knott

Owner: Kirby Inland Marine, LP, Houston, TX. More information available from US FCC via Universal Licensing System and Coast Guard Vessel Documentation Center.

Last reported at 2017-Nov-18 19:24 UTC. Time now 2017-Nov-19 01:16 UTC.
Position N 30°04' W 093°42'.

Length 301 m; draft 3.1 m.

Type: . MMSI: 367562820.

Date/timePositionNaut miles runAvg speedWind from/ knotsBaromVisibWave heightAir tempDewpointWater temp
2017-Nov-18 19:24N 30°04' W 093°42'1 2.8
2017-Nov-18 19:00N 30°04' W 093°41'0 0.6
2017-Nov-18 18:29N 30°04' W 093°40'2 4.3
2017-Nov-18 18:00N 30°04' W 093°38'2 4.8
2017-Nov-18 17:30N 30°04' W 093°35'2 4.7
2017-Nov-18 17:00N 30°04' W 093°32'2 4.8
2017-Nov-18 16:30N 30°04' W 093°30'2 4.6
2017-Nov-18 16:00N 30°04' W 093°27'2 4.7
2017-Nov-18 15:30N 30°04' W 093°24'2 4.4
2017-Nov-18 15:00N 30°04' W 093°22'2 3.0
2017-Nov-18 14:30N 30°05' W 093°20'2 3.5
2017-Nov-18 14:00N 30°06' W 093°19'1 2.9
2017-Nov-18 13:30N 30°05' W 093°18'1 1.7
2017-Nov-18 13:00N 30°05' W 093°17'1 2.1
2017-Nov-18 12:30N 30°04' W 093°16'0 0.1
2017-Nov-18 12:00N 30°04' W 093°16'0 0.2
2017-Nov-18 11:30N 30°04' W 093°16'0 0.3
2017-Nov-18 11:00N 30°04' W 093°16'1 1.7
2017-Nov-18 10:30N 30°03' W 093°16'2 4.1
2017-Nov-18 10:00N 30°01' W 093°14'2 4.0
2017-Nov-18 09:30N 29°60' W 093°13'2 4.7
2017-Nov-18 09:00N 29°58' W 093°11'2 3.1
2017-Nov-18 08:30N 29°57' W 093°10'2 4.0
2017-Nov-18 08:00N 29°56' W 093°08'2 4.3
2017-Nov-18 07:30N 29°56' W 093°05'2 3.4
2017-Nov-18 07:00N 29°56' W 093°03'1 2.1
2017-Nov-18 06:30N 29°56' W 093°02'35 4.2
2017-Nov-17 22:04N 29°51' W 092°22'0 3.2
2017-Nov-17 22:00N 29°51' W 092°21'2 3.8
2017-Nov-17 21:30N 29°50' W 092°19'2 3.4
2017-Nov-17 21:00N 29°50' W 092°18'1 2.9
2017-Nov-17 20:30N 29°49' W 092°16'2 4.6
2017-Nov-17 20:00N 29°48' W 092°14'2 4.0
2017-Nov-17 19:30N 29°47' W 092°12'2 3.3
2017-Nov-17 19:00N 29°47' W 092°10'2 4.2
2017-Nov-17 18:30N 29°47' W 092°08'2 4.7
2017-Nov-17 18:00N 29°48' W 092°05'2 4.4
2017-Nov-17 17:30N 29°49' W 092°03'2 4.5
2017-Nov-17 17:00N 29°50' W 092°00'2 4.5
2017-Nov-17 16:30N 29°50' W 091°58'7 4.3
2017-Nov-17 14:50N 29°50' W 091°50'2 4.6
2017-Nov-17 14:30N 29°48' W 091°49'45 3.1
2017-Nov-17 00:02N 29°37' W 090°59'0 4.7
2017-Nov-17 00:00N 29°37' W 090°59'2 4.7
2017-Nov-16 23:30N 29°35' W 090°58'2 4.8
2017-Nov-16 23:00N 29°34' W 090°55'2 4.5
2017-Nov-16 22:30N 29°32' W 090°53'2 4.5
2017-Nov-16 22:00N 29°32' W 090°50'3 5.1
2017-Nov-16 21:30N 29°32' W 090°47'2 3.8
2017-Nov-16 21:00N 29°33' W 090°45'2 3.7
2017-Nov-16 20:30N 29°34' W 090°44'1 2.3
2017-Nov-16 20:00N 29°35' W 090°43'1 3.0
2017-Nov-16 19:30N 29°36' W 090°43'1 2.1
2017-Nov-16 19:00N 29°37' W 090°41'2 3.4
2017-Nov-16 18:30N 29°36' W 090°40'2 3.2
2017-Nov-16 18:00N 29°35' W 090°38'2 3.7
2017-Nov-16 17:30N 29°35' W 090°36'2 4.4
2017-Nov-16 17:00N 29°34' W 090°33'2 4.6
2017-Nov-16 16:30N 29°34' W 090°31'2 4.9
2017-Nov-16 16:00N 29°33' W 090°28'3 4.8
2017-Nov-16 15:23N 29°33' W 090°25'2 2.7
2017-Nov-16 14:36N 29°35' W 090°23'0 3.3
2017-Nov-16 14:29N 29°35' W 090°23'3 0.8
2017-Nov-16 10:46N 29°38' W 090°21'0 0.2
2017-Nov-16 10:30N 29°38' W 090°21'22 0.8
2017-Nov-15 07:21N 29°60' W 090°25'0 0.0
2017-Nov-15 06:59N 29°60' W 090°25'0 0.0
2017-Nov-15 06:30N 29°60' W 090°25'0 0.0
2017-Nov-15 05:21N 29°60' W 090°25'  
2017-Nov-11 14:37N 29°33' W 090°25'1 7.9
2017-Nov-11 14:30N 29°33' W 090°26'4 7.9
2017-Nov-11 14:00N 29°34' W 090°30'4 7.7
2017-Nov-11 13:30N 29°34' W 090°35'4 7.4
2017-Nov-11 13:00N 29°36' W 090°39'3 6.3
2017-Nov-11 12:30N 29°37' W 090°42'3 5.3
2017-Nov-11 12:00N 29°34' W 090°43'1 2.8
2017-Nov-11 11:30N 29°34' W 090°45'1 2.6
2017-Nov-11 11:00N 29°33' W 090°45'3 6.0
2017-Nov-11 10:30N 29°32' W 090°49'4 8.2
2017-Nov-11 10:00N 29°33' W 090°54'4 8.1
2017-Nov-11 09:30N 29°35' W 090°58'69 5.3
2017-Nov-10 20:25N 29°48' W 092°16'3 6.7
2017-Nov-10 19:59N 29°50' W 092°19'39 6.7
2017-Nov-10 14:09N 29°56' W 093°03'1 6.8
2017-Nov-10 13:59N 29°56' W 093°05'3 6.5
2017-Nov-10 13:30N 29°56' W 093°08'3 5.9
2017-Nov-10 13:00N 29°58' W 093°11'3 5.9
2017-Nov-10 12:30N 29°60' W 093°13'3 6.0
2017-Nov-10 12:00N 30°02' W 093°16'3 5.1
2017-Nov-10 11:30N 30°05' W 093°17'2 3.3
2017-Nov-10 11:00N 30°06' W 093°18'0 0.6
2017-Nov-10 10:30N 30°06' W 093°18'0 0.0
2017-Nov-10 10:00N 30°06' W 093°18'0 0.0
2017-Nov-10 09:30N 30°06' W 093°18'0 0.0
2017-Nov-10 09:00N 30°06' W 093°18'0 0.2
2017-Nov-10 08:30N 30°06' W 093°18'1 1.3
2017-Nov-10 08:00N 30°06' W 093°19'0 0.0
2017-Nov-10 07:30N 30°06' W 093°19'0 0.0
2017-Nov-10 07:00N 30°06' W 093°19'2 3.3
2017-Nov-10 06:30N 30°05' W 093°20'2 4.5
2017-Nov-10 06:00N 30°04' W 093°22'3 6.4
2017-Nov-10 05:30N 30°04' W 093°26'3 6.9
2017-Nov-10 05:00N 30°04' W 093°30'3 6.9
2017-Nov-10 04:30N 30°04' W 093°34'4 7.3
2017-Nov-10 04:00N 30°04' W 093°38'4 7.2
2017-Nov-10 03:30N 30°03' W 093°42'69 5.8
2017-Nov-09 15:35N 29°30' W 094°52'1 9.5
2017-Nov-09 15:27N 29°31' W 094°53'4 9.4
2017-Nov-09 15:00N 29°34' W 094°56'5 9.1
2017-Nov-09 14:30N 29°38' W 094°58'5 8.9
2017-Nov-09 14:00N 29°42' W 095°01'4 8.6
2017-Nov-09 13:30N 29°45' W 095°04'4 7.4
2017-Nov-09 13:00N 29°44' W 095°08'0 0.1
2017-Nov-09 12:30N 29°44' W 095°08'0 0.0
2017-Nov-09 12:00N 29°44' W 095°08'0 0.0
2017-Nov-09 11:30N 29°44' W 095°08'0 0.4
2017-Nov-09 11:00N 29°44' W 095°08'0 0.0
2017-Nov-09 10:30N 29°44' W 095°08'0 0.0
2017-Nov-09 10:00N 29°44' W 095°08'0 0.0
2017-Nov-09 09:30N 29°44' W 095°08'0 0.4
2017-Nov-09 09:00N 29°44' W 095°08'0 0.0
2017-Nov-09 08:30N 29°44' W 095°08'0 0.0
2017-Nov-09 08:00N 29°44' W 095°08'0 0.0
2017-Nov-09 07:30N 29°44' W 095°08'0 0.0
2017-Nov-09 07:00N 29°44' W 095°08'0 0.0
2017-Nov-09 06:30N 29°44' W 095°08'0 0.4
2017-Nov-09 06:00N 29°44' W 095°08'0 0.4
2017-Nov-09 05:30N 29°44' W 095°08'0 0.0
2017-Nov-09 05:00N 29°44' W 095°08'0 0.0
2017-Nov-09 04:30N 29°44' W 095°08'0 0.0
2017-Nov-09 04:00N 29°44' W 095°08'0 0.0
2017-Nov-09 03:30N 29°44' W 095°08'0 0.0
2017-Nov-09 03:00N 29°44' W 095°08'0 0.3
2017-Nov-09 02:30N 29°44' W 095°08'0 0.1
2017-Nov-09 02:00N 29°44' W 095°08'0 0.2
2017-Nov-09 01:30N 29°44' W 095°08'0 0.5
2017-Nov-09 01:00N 29°44' W 095°08'0 0.4
2017-Nov-09 00:30N 29°44' W 095°08'0 0.0
2017-Nov-09 00:00N 29°44' W 095°08'0 0.0
2017-Nov-08 23:30N 29°44' W 095°08'0 0.4
2017-Nov-08 23:00N 29°44' W 095°08'0 0.0
2017-Nov-08 22:30N 29°44' W 095°08'0 0.0
2017-Nov-08 22:00N 29°44' W 095°08'0 0.4
2017-Nov-08 21:30N 29°44' W 095°08'0 0.4
2017-Nov-08 21:00N 29°44' W 095°08'0 0.4
2017-Nov-08 20:30N 29°44' W 095°08'0 0.2
2017-Nov-08 20:00N 29°44' W 095°08'0 0.6
2017-Nov-08 19:30N 29°44' W 095°08'  
Track history (hours):
 
Tides and Currents Weather Stations Pressure Air Temp Water Temp Dewpoint Dewpoint Depression Visibility Wind Speed Wind Dir Waves Ship Positions

Brewster Knott

Owner: Kirby Inland Marine, LP, Houston, TX. More information available from US FCC via Universal Licensing System and Coast Guard Vessel Documentation Center.

Last reported at 2017-Nov-18 19:24 UTC. Time now 2017-Nov-19 01:16 UTC.
Position N 30°04' W 093°42'.

Length 301 m; draft 3.1 m.

Type: . MMSI: 367562820.

Date/timePositionNaut miles runAvg speedWind from/ knotsBaromVisibWave heightAir tempDewpointWater temp
2017-Nov-18 19:24N 30°04' W 093°42'1 2.8
2017-Nov-18 19:00N 30°04' W 093°41'0 0.6
2017-Nov-18 18:29N 30°04' W 093°40'2 4.3
2017-Nov-18 18:00N 30°04' W 093°38'2 4.8
2017-Nov-18 17:30N 30°04' W 093°35'2 4.7
2017-Nov-18 17:00N 30°04' W 093°32'2 4.8
2017-Nov-18 16:30N 30°04' W 093°30'2 4.6
2017-Nov-18 16:00N 30°04' W 093°27'2 4.7
2017-Nov-18 15:30N 30°04' W 093°24'2 4.4
2017-Nov-18 15:00N 30°04' W 093°22'2 3.0
2017-Nov-18 14:30N 30°05' W 093°20'2 3.5
2017-Nov-18 14:00N 30°06' W 093°19'1 2.9
2017-Nov-18 13:30N 30°05' W 093°18'1 1.7
2017-Nov-18 13:00N 30°05' W 093°17'1 2.1
2017-Nov-18 12:30N 30°04' W 093°16'0 0.1
2017-Nov-18 12:00N 30°04' W 093°16'0 0.2
2017-Nov-18 11:30N 30°04' W 093°16'0 0.3
2017-Nov-18 11:00N 30°04' W 093°16'1 1.7
2017-Nov-18 10:30N 30°03' W 093°16'2 4.1
2017-Nov-18 10:00N 30°01' W 093°14'2 4.0
2017-Nov-18 09:30N 29°60' W 093°13'2 4.7
2017-Nov-18 09:00N 29°58' W 093°11'2 3.1
2017-Nov-18 08:30N 29°57' W 093°10'2 4.0
2017-Nov-18 08:00N 29°56' W 093°08'2 4.3
2017-Nov-18 07:30N 29°56' W 093°05'2 3.4
2017-Nov-18 07:00N 29°56' W 093°03'1 2.1
2017-Nov-18 06:30N 29°56' W 093°02'35 4.2
2017-Nov-17 22:04N 29°51' W 092°22'0 3.2
2017-Nov-17 22:00N 29°51' W 092°21'2 3.8
2017-Nov-17 21:30N 29°50' W 092°19'2 3.4
2017-Nov-17 21:00N 29°50' W 092°18'1 2.9
2017-Nov-17 20:30N 29°49' W 092°16'2 4.6
2017-Nov-17 20:00N 29°48' W 092°14'2 4.0
2017-Nov-17 19:30N 29°47' W 092°12'2 3.3
2017-Nov-17 19:00N 29°47' W 092°10'2 4.2
2017-Nov-17 18:30N 29°47' W 092°08'2 4.7
2017-Nov-17 18:00N 29°48' W 092°05'2 4.4
2017-Nov-17 17:30N 29°49' W 092°03'2 4.5
2017-Nov-17 17:00N 29°50' W 092°00'2 4.5
2017-Nov-17 16:30N 29°50' W 091°58'7 4.3
2017-Nov-17 14:50N 29°50' W 091°50'2 4.6
2017-Nov-17 14:30N 29°48' W 091°49'45 3.1
2017-Nov-17 00:02N 29°37' W 090°59'0 4.7
2017-Nov-17 00:00N 29°37' W 090°59'2 4.7
2017-Nov-16 23:30N 29°35' W 090°58'2 4.8
2017-Nov-16 23:00N 29°34' W 090°55'2 4.5
2017-Nov-16 22:30N 29°32' W 090°53'2 4.5
2017-Nov-16 22:00N 29°32' W 090°50'3 5.1
2017-Nov-16 21:30N 29°32' W 090°47'2 3.8
2017-Nov-16 21:00N 29°33' W 090°45'2 3.7
2017-Nov-16 20:30N 29°34' W 090°44'1 2.3
2017-Nov-16 20:00N 29°35' W 090°43'1 3.0
2017-Nov-16 19:30N 29°36' W 090°43'1 2.1
2017-Nov-16 19:00N 29°37' W 090°41'2 3.4
2017-Nov-16 18:30N 29°36' W 090°40'2 3.2
2017-Nov-16 18:00N 29°35' W 090°38'2 3.7
2017-Nov-16 17:30N 29°35' W 090°36'2 4.4
2017-Nov-16 17:00N 29°34' W 090°33'2 4.6
2017-Nov-16 16:30N 29°34' W 090°31'2 4.9
2017-Nov-16 16:00N 29°33' W 090°28'3 4.8
2017-Nov-16 15:23N 29°33' W 090°25'2 2.7
2017-Nov-16 14:36N 29°35' W 090°23'0 3.3
2017-Nov-16 14:29N 29°35' W 090°23'3 0.8
2017-Nov-16 10:46N 29°38' W 090°21'0 0.2
2017-Nov-16 10:30N 29°38' W 090°21'22 0.8
2017-Nov-15 07:21N 29°60' W 090°25'0 0.0
2017-Nov-15 06:59N 29°60' W 090°25'0 0.0
2017-Nov-15 06:30N 29°60' W 090°25'0 0.0
2017-Nov-15 05:21N 29°60' W 090°25'  
2017-Nov-11 14:37N 29°33' W 090°25'1 7.9
2017-Nov-11 14:30N 29°33' W 090°26'4 7.9
2017-Nov-11 14:00N 29°34' W 090°30'4 7.7
2017-Nov-11 13:30N 29°34' W 090°35'4 7.4
2017-Nov-11 13:00N 29°36' W 090°39'3 6.3
2017-Nov-11 12:30N 29°37' W 090°42'3 5.3
2017-Nov-11 12:00N 29°34' W 090°43'1 2.8
2017-Nov-11 11:30N 29°34' W 090°45'1 2.6
2017-Nov-11 11:00N 29°33' W 090°45'3 6.0
2017-Nov-11 10:30N 29°32' W 090°49'4 8.2
2017-Nov-11 10:00N 29°33' W 090°54'4 8.1
2017-Nov-11 09:30N 29°35' W 090°58'69 5.3
2017-Nov-10 20:25N 29°48' W 092°16'3 6.7
2017-Nov-10 19:59N 29°50' W 092°19'39 6.7
2017-Nov-10 14:09N 29°56' W 093°03'1 6.8
2017-Nov-10 13:59N 29°56' W 093°05'3 6.5
2017-Nov-10 13:30N 29°56' W 093°08'3 5.9
2017-Nov-10 13:00N 29°58' W 093°11'3 5.9
2017-Nov-10 12:30N 29°60' W 093°13'3 6.0
2017-Nov-10 12:00N 30°02' W 093°16'3 5.1
2017-Nov-10 11:30N 30°05' W 093°17'2 3.3
2017-Nov-10 11:00N 30°06' W 093°18'0 0.6
2017-Nov-10 10:30N 30°06' W 093°18'0 0.0
2017-Nov-10 10:00N 30°06' W 093°18'0 0.0
2017-Nov-10 09:30N 30°06' W 093°18'0 0.0
2017-Nov-10 09:00N 30°06' W 093°18'0 0.2
2017-Nov-10 08:30N 30°06' W 093°18'1 1.3
2017-Nov-10 08:00N 30°06' W 093°19'0 0.0
2017-Nov-10 07:30N 30°06' W 093°19'0 0.0
2017-Nov-10 07:00N 30°06' W 093°19'2 3.3
2017-Nov-10 06:30N 30°05' W 093°20'2 4.5
2017-Nov-10 06:00N 30°04' W 093°22'3 6.4
2017-Nov-10 05:30N 30°04' W 093°26'3 6.9
2017-Nov-10 05:00N 30°04' W 093°30'3 6.9
2017-Nov-10 04:30N 30°04' W 093°34'4 7.3
2017-Nov-10 04:00N 30°04' W 093°38'4 7.2
2017-Nov-10 03:30N 30°03' W 093°42'69 5.8
2017-Nov-09 15:35N 29°30' W 094°52'1 9.5
2017-Nov-09 15:27N 29°31' W 094°53'4 9.4
2017-Nov-09 15:00N 29°34' W 094°56'5 9.1
2017-Nov-09 14:30N 29°38' W 094°58'5 8.9
2017-Nov-09 14:00N 29°42' W 095°01'4 8.6
2017-Nov-09 13:30N 29°45' W 095°04'4 7.4
2017-Nov-09 13:00N 29°44' W 095°08'0 0.1
2017-Nov-09 12:30N 29°44' W 095°08'0 0.0
2017-Nov-09 12:00N 29°44' W 095°08'0 0.0
2017-Nov-09 11:30N 29°44' W 095°08'0 0.4
2017-Nov-09 11:00N 29°44' W 095°08'0 0.0
2017-Nov-09 10:30N 29°44' W 095°08'0 0.0
2017-Nov-09 10:00N 29°44' W 095°08'0 0.0
2017-Nov-09 09:30N 29°44' W 095°08'0 0.4
2017-Nov-09 09:00N 29°44' W 095°08'0 0.0
2017-Nov-09 08:30N 29°44' W 095°08'0 0.0
2017-Nov-09 08:00N 29°44' W 095°08'0 0.0
2017-Nov-09 07:30N 29°44' W 095°08'0 0.0
2017-Nov-09 07:00N 29°44' W 095°08'0 0.0
2017-Nov-09 06:30N 29°44' W 095°08'0 0.4
2017-Nov-09 06:00N 29°44' W 095°08'0 0.4
2017-Nov-09 05:30N 29°44' W 095°08'0 0.0
2017-Nov-09 05:00N 29°44' W 095°08'0 0.0
2017-Nov-09 04:30N 29°44' W 095°08'0 0.0
2017-Nov-09 04:00N 29°44' W 095°08'0 0.0
2017-Nov-09 03:30N 29°44' W 095°08'0 0.0
2017-Nov-09 03:00N 29°44' W 095°08'0 0.3
2017-Nov-09 02:30N 29°44' W 095°08'0 0.1
2017-Nov-09 02:00N 29°44' W 095°08'0 0.2
2017-Nov-09 01:30N 29°44' W 095°08'0 0.5
2017-Nov-09 01:00N 29°44' W 095°08'0 0.4
2017-Nov-09 00:30N 29°44' W 095°08'0 0.0
2017-Nov-09 00:00N 29°44' W 095°08'0 0.0
2017-Nov-08 23:30N 29°44' W 095°08'0 0.4
2017-Nov-08 23:00N 29°44' W 095°08'0 0.0
2017-Nov-08 22:30N 29°44' W 095°08'0 0.0
2017-Nov-08 22:00N 29°44' W 095°08'0 0.4
2017-Nov-08 21:30N 29°44' W 095°08'0 0.4
2017-Nov-08 21:00N 29°44' W 095°08'0 0.4
2017-Nov-08 20:30N 29°44' W 095°08'0 0.2
2017-Nov-08 20:00N 29°44' W 095°08'0 0.6
2017-Nov-08 19:30N 29°44' W 095°08'  

Dump ship's entire track history